Time;durP1;ratioP1;P1;durP2;ratioP2;P2;SDS_P1;SDS_P2;PMS_P1;PMS_P2;Temp;Humidity;BMP_temperature;BMP_pressure;BME280_temperature;BME280_humidity;BME280_pressure;Samples;Min_cycle;Max_cycle;Signal;HPM_P1;HPM_P2
2021/10/09 00:00:25;;;;;;;16.58;13.13;;;11.60;99.90;;;;;;4999555;28;20034;-87
2021/10/09 00:02:53;;;;;;;14.07;12.05;;;11.60;99.90;;;;;;5033905;28;20369;-87
2021/10/09 00:05:19;;;;;;;16.80;13.70;;;11.50;99.90;;;;;;5034236;28;20014;-87
2021/10/09 00:07:45;;;;;;;16.10;12.68;;;11.50;99.90;;;;;;5016138;28;20025;-87
2021/10/09 00:10:23;;;;;;;17.27;13.63;;;11.50;99.90;;;;;;5015810;28;20029;-86
2021/10/09 00:12:59;;;;;;;17.73;13.80;;;11.50;99.90;;;;;;4973386;28;20122;-87
2021/10/09 00:15:27;;;;;;;16.00;13.07;;;11.50;99.90;;;;;;5011563;28;20072;-87
2021/10/09 00:17:54;;;;;;;16.42;13.05;;;11.40;99.90;;;;;;5019483;28;20022;-87
2021/10/09 00:20:24;;;;;;;16.33;12.77;;;11.50;99.90;;;;;;5038750;28;20107;-87
2021/10/09 00:22:51;;;;;;;18.02;13.93;;;11.40;99.90;;;;;;5039895;28;20108;-86
2021/10/09 00:25:20;;;;;;;17.23;13.10;;;11.40;99.90;;;;;;5032452;28;20112;-87
2021/10/09 00:27:48;;;;;;;17.63;13.30;;;11.40;99.90;;;;;;5016154;28;20026;-87
2021/10/09 00:30:15;;;;;;;18.25;14.38;;;11.40;99.90;;;;;;5015846;28;20114;-87
2021/10/09 00:32:42;;;;;;;16.58;13.60;;;11.30;99.90;;;;;;5032560;28;20152;-87
2021/10/09 00:35:08;;;;;;;15.90;13.68;;;11.30;99.90;;;;;;5015753;28;20021;-87
2021/10/09 00:37:34;;;;;;;18.13;15.27;;;11.30;99.90;;;;;;5035450;28;20006;-88
2021/10/09 00:40:01;;;;;;;18.92;14.18;;;11.30;99.90;;;;;;5024714;28;20048;-88
2021/10/09 00:42:27;;;;;;;18.90;15.25;;;11.20;99.90;;;;;;5018646;28;20021;-88
2021/10/09 00:44:53;;;;;;;17.05;13.93;;;11.20;99.90;;;;;;5046081;28;20469;-87
2021/10/09 00:47:23;;;;;;;17.55;14.27;;;11.20;99.90;;;;;;5024944;28;20049;-87
2021/10/09 00:49:49;;;;;;;22.17;16.02;;;11.20;99.90;;;;;;5041106;28;20060;-87
2021/10/09 00:52:16;;;;;;;19.38;15.68;;;11.20;99.90;;;;;;5019139;28;20026;-87
2021/10/09 00:54:45;;;;;;;19.48;15.45;;;11.20;99.90;;;;;;5019727;28;20112;-87
2021/10/09 01:00:35;;;;;;;16.77;13.65;;;11.10;99.90;;;;;;5036527;28;20040;-87
2021/10/09 01:03:09;;;;;;;19.73;14.45;;;11.10;99.90;;;;;;5019324;28;20029;-87
2021/10/09 01:05:37;;;;;;;19.15;15.70;;;11.10;99.90;;;;;;5032078;28;20033;-88
2021/10/09 01:08:04;;;;;;;23.73;17.42;;;11.10;99.90;;;;;;5019257;28;20051;-86
2021/10/09 01:10:30;;;;;;;20.27;15.60;;;11.10;99.90;;;;;;5036484;28;20017;-86
2021/10/09 01:12:58;;;;;;;21.15;15.48;;;11.00;99.90;;;;;;5038720;28;20034;-87
2021/10/09 01:15:31;;;;;;;19.52;15.82;;;11.10;99.90;;;;;;5040238;28;20024;-87
2021/10/09 01:18:05;;;;;;;19.25;14.93;;;11.00;99.90;;;;;;5030159;28;20045;-87
2021/10/09 01:20:46;;;;;;;21.15;17.05;;;11.00;99.90;;;;;;5035824;28;20053;-86
2021/10/09 01:23:15;;;;;;;20.38;15.88;;;11.00;99.90;;;;;;5042389;28;20022;-86
2021/10/09 01:25:41;;;;;;;20.08;15.68;;;11.00;99.90;;;;;;5040127;28;20097;-88
2021/10/09 01:28:10;;;;;;;18.92;15.48;;;11.00;99.90;;;;;;5019492;28;20478;-88
2021/10/09 01:30:37;;;;;;;20.33;15.95;;;11.00;99.90;;;;;;5048473;28;20020;-88
2021/10/09 01:33:04;;;;;;;19.38;15.52;;;10.90;99.90;;;;;;5024493;28;20028;-88
2021/10/09 01:35:31;;;;;;;20.05;16.50;;;10.90;99.90;;;;;;5044185;28;20020;-88
2021/10/09 01:37:59;;;;;;;20.20;16.20;;;10.90;99.90;;;;;;5028933;28;20362;-88
2021/10/09 01:40:25;;;;;;;19.33;15.38;;;10.90;99.90;;;;;;5044020;28;20052;-87
2021/10/09 01:42:51;;;;;;;19.85;15.73;;;10.90;99.90;;;;;;5038689;28;20086;-88
2021/10/09 01:45:18;;;;;;;23.00;16.60;;;10.90;99.90;;;;;;5024268;28;20021;-88
2021/10/09 01:47:44;;;;;;;21.25;15.68;;;10.80;99.90;;;;;;5039976;28;20725;-88
2021/10/09 01:50:11;;;;;;;18.75;15.15;;;10.80;99.90;;;;;;5044449;28;20059;-88
2021/10/09 01:52:37;;;;;;;20.48;15.93;;;10.80;99.90;;;;;;5027491;28;20466;-88
2021/10/09 01:55:03;;;;;;;21.30;16.38;;;10.80;99.90;;;;;;5029252;28;20036;-88
2021/10/09 01:57:29;;;;;;;20.23;16.55;;;10.80;99.90;;;;;;5022755;28;20473;-88
2021/10/09 01:59:55;;;;;;;21.38;16.30;;;10.80;99.90;;;;;;5027395;28;20044;-88
2021/10/09 02:02:21;;;;;;;20.95;16.92;;;10.70;99.90;;;;;;5018643;28;20029;-88
2021/10/09 02:04:47;;;;;;;21.20;15.43;;;10.70;99.90;;;;;;5013089;28;20028;-88
2021/10/09 02:07:20;;;;;;;20.80;16.15;;;10.70;99.90;;;;;;5024940;28;20013;-87
2021/10/09 02:09:45;;;;;;;19.23;15.32;;;10.70;99.90;;;;;;5044827;28;20025;-88
2021/10/09 02:12:12;;;;;;;19.38;15.27;;;10.70;99.90;;;;;;5026963;28;20128;-87
2021/10/09 02:14:50;;;;;;;21.00;16.00;;;10.60;99.90;;;;;;5046526;28;20112;-87
2021/10/09 02:25:37;;;;;;;20.67;15.05;;;10.60;99.90;;;;;;5046655;28;20064;-88
2021/10/09 02:28:06;;;;;;;21.20;16.38;;;10.50;99.90;;;;;;5028680;28;20021;-87
2021/10/09 02:30:32;;;;;;;24.40;17.98;;;10.60;99.90;;;;;;5022040;28;20021;-87
2021/10/09 02:32:58;;;;;;;22.30;17.83;;;10.50;99.90;;;;;;5017219;28;20022;-86
2021/10/09 02:35:25;;;;;;;21.30;16.50;;;10.50;99.90;;;;;;5017514;28;20040;-87
2021/10/09 02:37:51;;;;;;;22.15;17.15;;;10.50;99.90;;;;;;5016999;28;20103;-88
2021/10/09 02:40:18;;;;;;;21.75;17.15;;;10.50;99.90;;;;;;5034723;28;20025;-87
2021/10/09 02:42:43;;;;;;;23.98;17.83;;;10.50;99.90;;;;;;5017413;28;20036;-88
2021/10/09 02:45:09;;;;;;;22.08;17.65;;;10.50;99.90;;;;;;5017020;28;20017;-88
2021/10/09 02:47:37;;;;;;;22.10;17.55;;;10.50;99.90;;;;;;5033564;28;20069;-87
2021/10/09 02:50:03;;;;;;;23.65;16.92;;;10.50;99.90;;;;;;5000881;28;20412;-88
2021/10/09 02:52:30;;;;;;;22.33;16.55;;;10.50;99.90;;;;;;5034742;28;20067;-88
2021/10/09 02:54:55;;;;;;;21.52;16.88;;;10.40;99.90;;;;;;5033520;28;20036;-87
2021/10/09 02:57:21;;;;;;;21.23;16.42;;;10.40;99.90;;;;;;5033423;28;20018;-87
2021/10/09 02:59:47;;;;;;;21.17;16.17;;;10.40;99.90;;;;;;5016811;28;20104;-86
2021/10/09 03:02:12;;;;;;;21.65;17.00;;;10.40;99.90;;;;;;5016955;28;20022;-87
2021/10/09 03:04:38;;;;;;;21.90;17.20;;;10.30;99.90;;;;;;5000336;28;20457;-87
2021/10/09 03:07:04;;;;;;;24.50;17.90;;;10.30;99.90;;;;;;5034430;28;20053;-87
2021/10/09 03:09:29;;;;;;;23.73;18.25;;;10.30;99.90;;;;;;5000305;28;20079;-87
2021/10/09 03:11:55;;;;;;;23.42;16.95;;;10.30;99.90;;;;;;5016077;28;20033;-88
2021/10/09 03:14:23;;;;;;;21.73;17.08;;;10.20;99.90;;;;;;5016917;28;20033;-87
2021/10/09 03:16:49;;;;;;;24.00;15.60;;;10.20;99.90;;;;;;5016721;28;20021;-87
2021/10/09 03:19:14;;;;;;;20.88;16.58;;;10.20;99.90;;;;;;5016149;28;20021;-87
2021/10/09 03:21:40;;;;;;;25.55;17.88;;;10.20;99.90;;;;;;5016414;28;20116;-87
2021/10/09 03:24:07;;;;;;;22.60;16.45;;;10.20;99.90;;;;;;5016500;28;20021;-87
2021/10/09 03:26:33;;;;;;;22.17;17.05;;;10.10;99.90;;;;;;5016250;28;20390;-88
2021/10/09 03:28:59;;;;;;;21.52;16.98;;;10.10;99.90;;;;;;5034110;28;20105;-88
2021/10/09 03:31:24;;;;;;;20.88;16.85;;;10.00;99.90;;;;;;5016684;28;20036;-87
2021/10/09 03:33:50;;;;;;;23.23;17.33;;;10.00;99.90;;;;;;5016454;28;20021;-86
2021/10/09 03:36:16;;;;;;;19.77;15.43;;;10.00;99.90;;;;;;5034165;28;20219;-88
2021/10/09 03:38:42;;;;;;;20.27;15.73;;;10.00;99.90;;;;;;5016261;28;20076;-87
2021/10/09 03:41:10;;;;;;;19.67;15.88;;;10.00;99.90;;;;;;5032675;28;20037;-87
2021/10/09 03:43:37;;;;;;;21.45;16.55;;;9.90;99.90;;;;;;5033842;28;20021;-88
2021/10/09 03:46:14;;;;;;;23.17;16.65;;;9.90;99.90;;;;;;5016149;28;20041;-87
2021/10/09 03:53:35;;;;;;;19.85;15.27;;;9.80;99.90;;;;;;5033889;28;20034;-88
2021/10/09 03:56:08;;;;;;;23.02;17.50;;;9.80;99.90;;;;;;5016399;28;20057;-88
2021/10/09 03:58:33;;;;;;;23.33;16.50;;;9.80;99.90;;;;;;4965993;28;20454;-87
2021/10/09 04:00:59;;;;;;;21.13;17.05;;;9.70;99.90;;;;;;5015752;28;20031;-87
2021/10/09 04:03:26;;;;;;;21.52;16.65;;;9.70;99.90;;;;;;5033311;28;20052;-86
2021/10/09 04:05:52;;;;;;;20.40;16.48;;;9.70;99.90;;;;;;5016516;28;20083;-87
2021/10/09 04:08:17;;;;;;;22.38;15.98;;;9.70;99.90;;;;;;5016856;28;20388;-87
2021/10/09 04:10:43;;;;;;;22.35;16.00;;;9.70;99.90;;;;;;5016250;28;20029;-87
2021/10/09 04:13:12;;;;;;;20.73;16.80;;;9.60;99.90;;;;;;5016045;28;20393;-86
2021/10/09 04:15:38;;;;;;;21.30;15.88;;;9.60;99.90;;;;;;5032793;28;20017;-87
2021/10/09 04:18:03;;;;;;;21.85;16.40;;;9.50;99.90;;;;;;5016208;28;20479;-87
2021/10/09 04:20:29;;;;;;;20.50;16.08;;;9.50;99.90;;;;;;5016037;28;20076;-86
2021/10/09 04:22:55;;;;;;;22.42;15.77;;;9.50;99.90;;;;;;5035489;28;20347;-87
2021/10/09 04:25:20;;;;;;;19.50;14.90;;;9.50;99.90;;;;;;5020059;28;20025;-87
2021/10/09 04:27:46;;;;;;;20.85;15.20;;;9.50;99.90;;;;;;5035955;28;20018;-87
2021/10/09 04:30:12;;;;;;;22.45;17.15;;;9.40;99.90;;;;;;5019943;28;20036;-87
2021/10/09 04:32:38;;;;;;;20.90;16.30;;;9.40;99.90;;;;;;5036278;28;20492;-87
2021/10/09 04:35:04;;;;;;;21.88;16.50;;;9.30;99.90;;;;;;5019995;28;20445;-87
2021/10/09 04:37:35;;;;;;;22.42;17.55;;;9.30;99.90;;;;;;5037610;28;20148;-87
2021/10/09 04:40:17;;;;;;;22.70;17.35;;;9.30;99.90;;;;;;5036522;28;20030;-86
2021/10/09 04:42:43;;;;;;;20.92;16.38;;;9.20;99.90;;;;;;5003097;28;20029;-87
2021/10/09 04:45:12;;;;;;;21.65;16.77;;;9.20;99.90;;;;;;5037531;28;20492;-88
2021/10/09 04:47:37;;;;;;;21.77;15.98;;;9.10;99.90;;;;;;5016113;28;20054;-87
2021/10/09 04:50:05;;;;;;;20.80;15.68;;;9.20;99.90;;;;;;4999927;28;20080;-87
2021/10/09 04:52:32;;;;;;;21.73;16.42;;;9.10;99.90;;;;;;4983602;28;20113;-87
2021/10/09 04:54:58;;;;;;;22.17;16.80;;;9.10;99.90;;;;;;5016837;28;20024;-87
2021/10/09 04:57:23;;;;;;;23.20;17.98;;;9.10;99.90;;;;;;4999513;28;20022;-87
2021/10/09 04:59:50;;;;;;;25.15;17.52;;;9.10;99.90;;;;;;4999514;28;20014;-86
2021/10/09 05:02:16;;;;;;;25.30;17.48;;;9.00;99.90;;;;;;5015622;28;20453;-86
2021/10/09 05:04:42;;;;;;;24.02;17.60;;;9.00;99.90;;;;;;5015791;28;20024;-86
2021/10/09 05:07:08;;;;;;;22.00;16.40;;;9.00;99.90;;;;;;5016798;28;20022;-87
2021/10/09 05:09:34;;;;;;;22.58;17.27;;;9.00;99.90;;;;;;5016528;28;20524;-86
2021/10/09 05:12:00;;;;;;;21.30;15.68;;;9.00;99.90;;;;;;5015539;28;20026;-86
2021/10/09 05:14:25;;;;;;;21.90;16.42;;;8.90;99.90;;;;;;5015579;28;20030;-87
2021/10/09 05:16:52;;;;;;;22.70;16.30;;;8.90;99.90;;;;;;5015692;28;20064;-88
2021/10/09 05:19:18;;;;;;;23.65;17.25;;;8.90;99.90;;;;;;4999109;28;20076;-87
2021/10/09 05:21:44;;;;;;;24.13;17.58;;;8.90;99.90;;;;;;5015467;28;20462;-87
2021/10/09 05:24:11;;;;;;;22.65;17.13;;;8.80;99.90;;;;;;5015606;28;20446;-87
2021/10/09 05:26:39;;;;;;;21.30;16.35;;;8.80;99.90;;;;;;4999066;28;20026;-86
2021/10/09 05:29:04;;;;;;;23.10;16.65;;;8.80;99.90;;;;;;5016573;28;20068;-88
2021/10/09 05:31:34;;;;;;;22.95;17.42;;;8.80;99.90;;;;;;5016417;28;20025;-87
2021/10/09 05:34:00;;;;;;;22.88;17.02;;;8.80;99.90;;;;;;5014845;28;20029;-88
2021/10/09 05:36:26;;;;;;;23.67;17.98;;;8.80;99.90;;;;;;5015334;28;20045;-87
2021/10/09 05:38:52;;;;;;;25.00;18.17;;;8.80;99.90;;;;;;4998850;28;20040;-87
2021/10/09 05:41:19;;;;;;;22.55;16.55;;;8.80;99.90;;;;;;4998706;28;20045;-87
2021/10/09 05:43:46;;;;;;;24.45;18.33;;;8.70;99.90;;;;;;4998946;28;20042;-87
2021/10/09 05:46:12;;;;;;;24.73;17.42;;;8.70;99.90;;;;;;5014934;28;20042;-86
2021/10/09 05:48:40;;;;;;;25.45;18.58;;;8.70;99.90;;;;;;4998865;28;20117;-86
2021/10/09 05:56:34;;;;;;;25.70;18.15;;;8.70;99.90;;;;;;5016266;28;20029;-88
2021/10/09 06:43:02;;;;;;;26.05;18.13;;;8.80;99.90;;;;;;5015123;28;20072;-87
2021/10/09 07:01:48;;;;;;;23.60;17.52;;;9.10;99.90;;;;;;5034179;28;20052;-86
2021/10/09 07:04:14;;;;;;;26.30;18.65;;;9.20;99.90;;;;;;5016363;28;20473;-86
2021/10/09 07:06:41;;;;;;;25.67;18.98;;;9.20;99.90;;;;;;5016650;28;20068;-85
2021/10/09 07:09:07;;;;;;;26.63;20.00;;;9.30;99.90;;;;;;5017170;28;20056;-87
2021/10/09 07:11:34;;;;;;;24.58;18.75;;;9.30;99.90;;;;;;5016668;28;20050;-86
2021/10/09 07:14:00;;;;;;;23.60;18.48;;;9.40;99.90;;;;;;5017142;28;20025;-88
2021/10/09 07:16:25;;;;;;;27.50;20.38;;;9.50;99.90;;;;;;5017022;28;20445;-87
2021/10/09 07:18:54;;;;;;;27.00;19.60;;;9.60;99.90;;;;;;5016726;28;20032;-87
2021/10/09 07:21:20;;;;;;;25.13;19.02;;;9.60;99.90;;;;;;5016425;28;20063;-88
2021/10/09 07:23:48;;;;;;;25.50;18.95;;;9.70;99.90;;;;;;5016607;28;20026;-87
2021/10/09 07:26:16;;;;;;;26.05;19.58;;;9.80;99.90;;;;;;5034397;28;20137;-87
2021/10/09 07:28:42;;;;;;;27.00;20.33;;;9.90;99.90;;;;;;5016740;28;20018;-87
2021/10/09 07:31:10;;;;;;;26.45;19.33;;;9.90;99.90;;;;;;5016355;28;20029;-87
2021/10/09 07:33:36;;;;;;;25.23;19.23;;;9.90;99.90;;;;;;5020091;28;20025;-87
2021/10/09 07:36:03;;;;;;;24.50;19.42;;;10.00;99.90;;;;;;5014552;28;20029;-86
2021/10/09 07:38:31;;;;;;;27.55;20.17;;;10.10;99.90;;;;;;5013976;28;20014;-87
2021/10/09 07:40:56;;;;;;;25.35;18.77;;;10.10;99.90;;;;;;5019973;28;20030;-86
2021/10/09 07:43:22;;;;;;;29.42;22.00;;;10.20;99.90;;;;;;4999570;28;20025;-87
2021/10/09 07:45:49;;;;;;;29.45;21.05;;;10.30;99.90;;;;;;5032362;28;20036;-88
2021/10/09 07:48:16;;;;;;;25.55;19.38;;;10.40;99.90;;;;;;4999940;28;20022;-87
2021/10/09 07:50:42;;;;;;;27.05;20.05;;;10.40;99.90;;;;;;5015297;28;20032;-86
2021/10/09 07:53:08;;;;;;;27.48;20.35;;;10.50;99.90;;;;;;5030271;28;20108;-86
2021/10/09 07:55:33;;;;;;;26.10;19.58;;;10.50;99.90;;;;;;5014283;28;20112;-87
2021/10/09 07:57:59;;;;;;;28.10;20.70;;;10.50;99.90;;;;;;5019205;28;20016;-88
2021/10/09 08:00:28;;;;;;;28.02;20.50;;;10.60;99.90;;;;;;5019541;28;20079;-88
2021/10/09 08:02:54;;;;;;;25.77;19.08;;;10.70;99.90;;;;;;5019524;28;20029;-87
2021/10/09 08:05:23;;;;;;;31.95;22.10;;;10.70;99.90;;;;;;5037265;28;20013;-86
2021/10/09 08:07:49;;;;;;;26.13;19.90;;;10.70;99.90;;;;;;5001660;28;20026;-88
2021/10/09 08:10:15;;;;;;;28.25;21.48;;;10.70;99.90;;;;;;5037305;28;20092;-86
2021/10/09 08:12:41;;;;;;;30.45;21.90;;;10.70;99.90;;;;;;5036099;28;20120;-86
2021/10/09 08:15:10;;;;;;;28.85;21.67;;;10.70;99.90;;;;;;5019802;28;20018;-87
2021/10/09 08:17:38;;;;;;;28.20;20.27;;;10.70;99.90;;;;;;5019985;28;20025;-86
2021/10/09 08:20:08;;;;;;;30.33;22.48;;;10.70;99.90;;;;;;5019764;28;20026;-86
2021/10/09 08:22:39;;;;;;;30.25;22.63;;;10.70;99.90;;;;;;5016316;28;20021;-87
2021/10/09 08:38:52;;;;;;;28.83;21.80;;;10.90;99.90;;;;;;5037498;28;20033;-87
2021/10/09 08:41:18;;;;;;;29.13;20.95;;;11.10;99.90;;;;;;5004658;28;20091;-88
2021/10/09 08:43:46;;;;;;;28.33;21.10;;;11.30;99.90;;;;;;5019280;28;20055;-88
2021/10/09 08:46:12;;;;;;;26.50;20.27;;;11.40;99.90;;;;;;5019305;28;20045;-85
2021/10/09 08:48:42;;;;;;;28.73;21.23;;;11.70;99.90;;;;;;5019218;28;20045;-86
2021/10/09 08:51:09;;;;;;;28.27;21.60;;;11.90;99.90;;;;;;5019391;28;20119;-86
2021/10/09 08:53:41;;;;;;;30.23;22.38;;;12.10;99.90;;;;;;5018184;28;20037;-85
2021/10/09 08:56:08;;;;;;;27.63;21.88;;;12.30;99.90;;;;;;5035714;28;20021;-87
2021/10/09 08:58:38;;;;;;;26.42;20.95;;;12.40;99.90;;;;;;5003142;28;20022;-86
2021/10/09 09:01:27;;;;;;;31.65;22.33;;;12.50;99.90;;;;;;5037179;28;20361;-87
2021/10/09 09:07:00;;;;;;;25.73;20.77;;;12.60;99.90;;;;;;5032365;28;20030;-86
2021/10/09 09:25:21;;;;;;;29.73;23.02;;;12.60;99.90;;;;;;5034908;28;20056;-86
2021/10/09 09:27:12;;;;;;;20.17;17.75;;;18.20;99.90;;;;;;5024377;28;20381;-87
2021/10/09 09:38:53;;;;;;;19.75;17.20;;;20.40;99.90;;;;;;5018261;28;20353;-87
2021/10/09 09:40:40;;;;;;;19.48;17.38;;;20.80;99.90;;;;;;5012467;28;20221;-87
2021/10/09 09:43:09;;;;;;;20.85;17.48;;;21.00;99.90;;;;;;4996512;28;20088;-88
2021/10/09 09:45:37;;;;;;;19.45;16.60;;;21.30;99.90;;;;;;4996778;28;20395;-88
2021/10/09 09:48:05;;;;;;;20.73;16.42;;;21.70;99.90;;;;;;4980868;28;20053;-88
2021/10/09 09:50:36;;;;;;;19.58;16.20;;;22.00;99.90;;;;;;4961912;28;20038;-88
2021/10/09 09:53:05;;;;;;;16.67;14.60;;;22.30;99.90;;;;;;4962071;28;20038;-88
2021/10/09 09:55:31;;;;;;;19.17;16.33;;;22.70;99.90;;;;;;4961773;28;20057;-88
2021/10/09 09:57:59;;;;;;;19.25;16.13;;;23.00;99.90;;;;;;4945207;28;20030;-87
2021/10/09 10:00:33;;;;;;;17.88;15.23;;;23.10;99.90;;;;;;4993638;28;20042;-87
2021/10/09 10:03:02;;;;;;;17.88;14.48;;;23.20;99.90;;;;;;4991545;28;20034;-87
2021/10/09 10:05:29;;;;;;;17.75;15.13;;;23.50;99.90;;;;;;4971674;28;20425;-88
2021/10/09 10:08:00;;;;;;;17.80;15.15;;;23.60;99.90;;;;;;4956974;28;20454;-88
2021/10/09 10:10:28;;;;;;;16.35;14.00;;;23.50;99.90;;;;;;4974976;28;20031;-88
2021/10/09 10:12:57;;;;;;;16.35;13.93;;;23.60;99.90;;;;;;4975138;28;20089;-88
2021/10/09 10:15:31;;;;;;;16.08;14.38;;;23.80;99.90;;;;;;4962566;28;20034;-88
2021/10/09 10:17:58;;;;;;;17.52;14.20;;;24.00;99.90;;;;;;4962330;28;20045;-88
2021/10/09 10:20:44;;;;;;;14.55;12.75;;;24.20;99.90;;;;;;4961563;28;20031;-88
2021/10/09 10:23:36;;;;;;;15.77;14.10;;;24.30;99.90;;;;;;4995765;28;20510;-87
2021/10/09 10:26:34;;;;;;;14.68;12.88;;;24.60;99.60;;;;;;4977911;28;20034;-88
2021/10/09 10:29:03;;;;;;;15.55;12.77;;;24.80;99.30;;;;;;4964809;28;20046;-88
2021/10/09 10:31:33;;;;;;;15.27;13.05;;;25.00;98.80;;;;;;4995552;28;20026;-88
2021/10/09 10:34:21;;;;;;;14.45;12.52;;;25.10;98.20;;;;;;4978258;28;20073;-88
2021/10/09 10:36:47;;;;;;;15.20;12.43;;;25.30;97.80;;;;;;4998462;28;20342;-88
2021/10/09 10:39:19;;;;;;;15.70;13.23;;;25.60;97.40;;;;;;4998411;28;20453;-88
2021/10/09 10:42:04;;;;;;;15.80;13.32;;;25.70;96.50;;;;;;4996059;28;20042;-88
2021/10/09 10:44:57;;;;;;;15.30;12.82;;;25.80;96.10;;;;;;4978704;28;20023;-87
2021/10/09 10:53:36;;;;;;;13.45;11.55;;;26.20;94.80;;;;;;5015395;28;20076;-89
2021/10/09 10:56:11;;;;;;;13.43;12.02;;;26.30;94.80;;;;;;5036233;28;20354;-88
2021/10/09 10:58:38;;;;;;;17.75;15.05;;;26.60;94.10;;;;;;5053393;28;20056;-88
2021/10/09 11:01:32;;;;;;;16.20;13.25;;;26.50;92.90;;;;;;5054866;28;20040;-88
2021/10/09 11:03:59;;;;;;;13.73;11.38;;;26.30;93.00;;;;;;5050197;28;20036;-87
2021/10/09 11:06:27;;;;;;;14.32;12.25;;;26.50;93.00;;;;;;5053229;28;20039;-88
2021/10/09 11:08:59;;;;;;;14.93;12.48;;;26.80;92.50;;;;;;5034588;28;20025;-88
2021/10/09 11:11:42;;;;;;;13.20;11.40;;;27.00;92.10;;;;;;5034248;28;20052;-88
2021/10/09 11:14:09;;;;;;;13.50;10.75;;;27.10;91.80;;;;;;5015869;28;20021;-88
2021/10/09 11:16:37;;;;;;;15.13;11.70;;;27.20;91.80;;;;;;5014591;28;20024;-87
2021/10/09 11:19:03;;;;;;;12.57;11.27;;;27.50;91.30;;;;;;5014243;28;20120;-87
2021/10/09 11:21:31;;;;;;;13.63;10.82;;;27.70;90.70;;;;;;5014855;28;20124;-88
2021/10/09 11:24:00;;;;;;;11.55;9.88;;;27.70;90.80;;;;;;5000352;28;20116;-88
2021/10/09 11:26:27;;;;;;;14.13;10.32;;;27.80;90.50;;;;;;4999655;28;20049;-87
2021/10/09 11:29:01;;;;;;;14.90;10.63;;;27.90;90.10;;;;;;5033413;28;20021;-88
2021/10/09 11:31:28;;;;;;;15.50;10.93;;;28.10;89.60;;;;;;5014364;28;20018;-88
2021/10/09 11:33:56;;;;;;;14.32;11.45;;;28.30;89.30;;;;;;5014174;28;20025;-89
2021/10/09 11:36:23;;;;;;;14.60;11.32;;;28.30;88.40;;;;;;5014484;28;20024;-88
2021/10/09 11:39:06;;;;;;;14.70;10.77;;;28.20;87.20;;;;;;5015501;28;20022;-88
2021/10/09 11:41:33;;;;;;;15.95;11.77;;;28.20;86.60;;;;;;5033404;28;20473;-88
2021/10/09 11:44:06;;;;;;;13.63;11.18;;;28.20;86.20;;;;;;5032656;28;20069;-88
2021/10/09 11:55:18;;;;;;;12.35;10.60;;;28.30;85.20;;;;;;5033543;28;20036;-88
2021/10/09 11:57:46;;;;;;;14.15;10.95;;;28.40;84.70;;;;;;5015526;28;20017;-88
2021/10/09 12:00:36;;;;;;;13.57;10.93;;;28.50;83.50;;;;;;5015752;28;20037;-88
2021/10/09 12:03:36;;;;;;;12.13;10.43;;;28.60;82.40;;;;;;5016021;28;20034;-88
2021/10/09 12:06:08;;;;;;;14.82;11.70;;;28.70;82.40;;;;;;5025250;28;20426;-88
2021/10/09 12:08:46;;;;;;;14.83;10.73;;;28.80;81.80;;;;;;5033655;28;20020;-88
2021/10/09 12:11:22;;;;;;;13.38;11.15;;;28.90;81.30;;;;;;4999235;28;20037;-87
2021/10/09 12:14:04;;;;;;;13.48;11.13;;;28.90;80.20;;;;;;5034151;28;20020;-88
2021/10/09 12:16:42;;;;;;;13.27;11.05;;;28.80;79.70;;;;;;5032261;28;20080;-88
2021/10/09 12:19:14;;;;;;;12.68;10.18;;;28.90;79.40;;;;;;5016251;28;20037;-88
2021/10/09 12:21:53;;;;;;;12.80;11.10;;;29.10;78.70;;;;;;5033734;28;20037;-88
2021/10/09 12:24:22;;;;;;;13.65;11.07;;;29.20;78.30;;;;;;5030784;28;20481;-88
2021/10/09 12:27:06;;;;;;;13.10;9.93;;;29.20;79.10;;;;;;5014800;28;20096;-89
2021/10/09 12:29:35;;;;;;;11.02;9.77;;;29.30;78.70;;;;;;5030292;28;20111;-88
2021/10/09 12:32:14;;;;;;;11.48;9.35;;;29.30;78.00;;;;;;5029301;28;20034;-88
2021/10/09 12:34:41;;;;;;;11.52;9.73;;;29.40;77.30;;;;;;5012647;28;20080;-88
2021/10/09 12:37:25;;;;;;;11.15;9.95;;;29.50;76.80;;;;;;5014310;28;20025;-89
2021/10/09 12:40:12;;;;;;;13.23;10.00;;;29.60;76.40;;;;;;5011527;28;20030;-88
2021/10/09 12:42:45;;;;;;;12.70;10.93;;;29.60;75.80;;;;;;5026726;28;20126;-88
2021/10/09 12:45:13;;;;;;;13.25;10.23;;;29.50;75.40;;;;;;5017385;28;20033;-88
2021/10/09 12:47:45;;;;;;;11.60;9.52;;;29.40;75.40;;;;;;5020302;28;20482;-88
2021/10/09 12:50:12;;;;;;;12.23;9.67;;;29.40;75.50;;;;;;5017774;28;20480;-89
2021/10/09 12:52:44;;;;;;;11.93;9.68;;;29.40;75.30;;;;;;5034113;28;20372;-89
2021/10/09 12:55:13;;;;;;;10.77;9.68;;;29.50;75.10;;;;;;5018154;28;20029;-88
2021/10/09 13:04:43;;;;;;;14.57;10.48;;;29.50;75.20;;;;;;5018168;28;20072;-89
2021/10/09 13:07:10;;;;;;;12.90;10.00;;;29.40;74.90;;;;;;5017078;28;20466;-88
2021/10/09 13:09:38;;;;;;;11.75;10.27;;;29.10;75.10;;;;;;4999341;28;20033;-88
2021/10/09 13:15:26;;;;;;;12.70;11.18;;;29.00;74.50;;;;;;5016395;28;20475;-88
2021/10/09 13:17:53;;;;;;;12.73;10.35;;;28.70;75.20;;;;;;5015201;28;20024;-87
2021/10/09 13:20:22;;;;;;;15.80;10.98;;;28.20;75.50;;;;;;5015497;28;20619;-88
2021/10/09 13:22:49;;;;;;;10.45;9.35;;;27.90;75.60;;;;;;5015044;28;20484;-88
2021/10/09 13:25:16;;;;;;;14.57;10.60;;;27.70;76.80;;;;;;4999266;28;20411;-88
2021/10/09 13:27:57;;;;;;;13.10;11.35;;;27.30;77.10;;;;;;5015464;28;20384;-88
2021/10/09 13:30:24;;;;;;;13.57;11.05;;;27.00;77.20;;;;;;5014079;28;20030;-88
2021/10/09 13:33:27;;;;;;;11.82;9.65;;;26.60;78.20;;;;;;5016030;28;20085;-88
2021/10/09 13:39:17;;;;;;;11.23;9.35;;;26.30;78.90;;;;;;5016563;28;20029;-86
2021/10/09 13:41:52;;;;;;;13.18;10.20;;;26.30;79.20;;;;;;5017448;28;20132;-87
2021/10/09 13:47:42;;;;;;;12.30;8.88;;;25.70;79.60;;;;;;5013022;28;20409;-87
2021/10/09 13:50:10;;;;;;;10.90;8.85;;;24.80;81.80;;;;;;5015076;28;20022;-88
2021/10/09 14:00:07;;;;;;;9.43;8.48;;;23.90;84.30;;;;;;5017358;28;20048;-87
2021/10/09 14:02:47;;;;;;;11.40;8.77;;;23.50;85.00;;;;;;5033092;28;20127;-87
2021/10/09 14:05:14;;;;;;;12.65;9.35;;;23.20;85.90;;;;;;5013445;28;20065;-86
2021/10/09 14:08:24;;;;;;;11.82;8.63;;;22.80;86.80;;;;;;5015252;28;20018;-86
2021/10/09 14:14:14;;;;;;;10.52;8.50;;;22.80;87.60;;;;;;5015870;28;20076;-87
2021/10/09 14:36:24;;;;;;;11.35;8.13;;;21.00;90.90;;;;;;5046852;28;20404;-87
2021/10/09 14:38:50;;;;;;;11.70;8.88;;;20.70;91.50;;;;;;5030108;28;20041;-87
2021/10/09 14:41:16;;;;;;;14.25;9.10;;;20.50;91.70;;;;;;5037008;28;20037;-86
2021/10/09 15:18:12;;;;;;;13.00;10.20;;;19.00;95.70;;;;;;5053637;28;20028;-87
2021/10/09 15:20:42;;;;;;;16.15;10.23;;;19.00;95.90;;;;;;5052517;28;20043;-86
2021/10/09 15:23:12;;;;;;;13.35;10.32;;;18.90;96.20;;;;;;5055904;28;20028;-86
2021/10/09 15:29:05;;;;;;;12.88;10.10;;;18.70;96.80;;;;;;5074069;28;20414;-86
2021/10/09 15:31:31;;;;;;;12.85;10.57;;;18.60;97.30;;;;;;5033900;28;20526;-86
2021/10/09 15:33:59;;;;;;;15.13;11.88;;;18.50;97.10;;;;;;5038085;28;20140;-86
2021/10/09 15:39:32;;;;;;;13.55;10.00;;;18.40;97.40;;;;;;5039704;28;20518;-86
2021/10/09 15:41:59;;;;;;;12.30;10.00;;;18.20;97.90;;;;;;5049680;28;20119;-86
2021/10/09 15:44:25;;;;;;;12.00;10.27;;;18.20;98.20;;;;;;5050106;28;20464;-86
2021/10/09 15:46:52;;;;;;;14.57;9.93;;;18.20;98.40;;;;;;5034423;28;20090;-86
2021/10/09 15:52:58;;;;;;;13.07;9.60;;;18.10;98.80;;;;;;5053146;28;20063;-87
2021/10/09 15:55:29;;;;;;;12.60;10.25;;;17.90;99.00;;;;;;5052789;28;20112;-86
2021/10/09 15:58:26;;;;;;;14.70;10.95;;;17.80;99.40;;;;;;5035927;28;20123;-86
2021/10/09 16:00:54;;;;;;;13.10;10.30;;;17.80;99.50;;;;;;5053843;28;20033;-86
2021/10/09 16:03:20;;;;;;;13.18;9.68;;;17.60;99.80;;;;;;5053308;28;20033;-86
2021/10/09 16:09:15;;;;;;;12.57;10.25;;;17.50;99.90;;;;;;5053803;28;20090;-86
2021/10/09 16:18:25;;;;;;;11.65;9.50;;;17.10;99.90;;;;;;5055444;28;20071;-88
2021/10/09 16:20:51;;;;;;;14.30;10.30;;;17.00;99.90;;;;;;5022488;28;20124;-87
2021/10/09 16:23:19;;;;;;;13.45;10.07;;;16.90;99.90;;;;;;5038954;28;20025;-87
2021/10/09 16:26:01;;;;;;;13.70;10.13;;;16.90;99.90;;;;;;5039564;28;20037;-86
2021/10/09 16:32:12;;;;;;;14.25;9.80;;;16.70;99.90;;;;;;5057530;28;20052;-86
2021/10/09 16:47:39;;;;;;;14.07;10.57;;;16.20;99.90;;;;;;5064617;28;20179;-87
2021/10/09 16:57:31;;;;;;;15.40;11.25;;;15.90;99.90;;;;;;5076559;28;20085;-87
2021/10/09 16:59:58;;;;;;;15.10;11.07;;;15.80;99.90;;;;;;5057294;28;20044;-87
2021/10/09 17:09:12;;;;;;;16.30;11.65;;;15.40;99.90;;;;;;5072509;28;20028;-88
2021/10/09 17:11:52;;;;;;;17.17;12.55;;;15.30;99.90;;;;;;5040896;28;20462;-88